createdAt,value
2018-05-10T00:02:14.063Z,20.20
2018-05-10T00:04:47.771Z,20.20
2018-05-10T00:07:22.091Z,20.10
2018-05-10T00:09:55.790Z,20.10
2018-05-10T00:12:29.302Z,20.10
2018-05-10T00:15:03.004Z,20.10
2018-05-10T00:17:36.715Z,20.00
2018-05-10T00:20:10.407Z,19.90
2018-05-10T00:22:44.706Z,19.90
2018-05-10T00:25:19.238Z,19.80
2018-05-10T00:27:52.883Z,19.70
2018-05-10T00:30:26.480Z,19.70
2018-05-10T00:33:00.127Z,19.80
2018-05-10T00:35:33.857Z,19.70
2018-05-10T00:38:07.432Z,19.70
2018-05-10T00:40:41.123Z,19.70
2018-05-10T00:43:14.863Z,19.70
2018-05-10T00:45:48.526Z,19.70
2018-05-10T00:48:22.272Z,19.70
2018-05-10T00:50:55.962Z,19.60
2018-05-10T00:53:29.550Z,19.60
2018-05-10T00:56:03.970Z,19.20
2018-05-10T00:58:37.895Z,19.10
2018-05-10T01:01:11.506Z,19.30
2018-05-10T01:03:45.322Z,19.30
2018-05-10T01:06:19.597Z,19.20
2018-05-10T01:08:53.526Z,19.20
2018-05-10T01:11:27.135Z,19.20
2018-05-10T01:14:00.940Z,19.20
2018-05-10T01:16:34.538Z,19.10
2018-05-10T01:19:08.347Z,18.70
2018-05-10T01:21:42.154Z,19.00
2018-05-10T01:24:16.667Z,18.80
2018-05-10T01:26:50.574Z,18.80
2018-05-10T01:29:24.387Z,18.70
2018-05-10T01:31:58.186Z,18.80
2018-05-10T01:34:31.848Z,18.80
2018-05-10T01:37:05.489Z,18.70
2018-05-10T01:39:39.058Z,18.70
2018-05-10T01:42:12.699Z,18.80
2018-05-10T01:44:46.303Z,18.70
2018-05-10T01:47:19.879Z,18.70
2018-05-10T01:49:53.454Z,18.60
2018-05-10T01:52:27.284Z,18.60
2018-05-10T01:55:01.002Z,18.60
2018-05-10T01:57:35.368Z,18.50
2018-05-10T02:00:08.855Z,18.40
2018-05-10T02:02:42.623Z,18.40
2018-05-10T02:05:17.140Z,18.30
2018-05-10T02:07:50.853Z,18.30
2018-05-10T02:10:25.474Z,18.30
2018-05-10T02:12:59.286Z,18.30
2018-05-10T02:15:33.573Z,18.30
2018-05-10T02:18:07.205Z,18.20
2018-05-10T02:20:40.903Z,18.20
2018-05-10T02:23:15.411Z,18.10
2018-05-10T02:25:48.998Z,18.10
2018-05-10T02:28:23.441Z,18.10
2018-05-10T02:30:57.151Z,18.10
2018-05-10T02:33:30.831Z,18.20
2018-05-10T02:36:05.248Z,17.90
2018-05-10T02:38:38.979Z,17.90
2018-05-10T02:41:13.602Z,18.00
2018-05-10T02:43:47.247Z,18.00
2018-05-10T02:46:21.011Z,18.00
2018-05-10T02:48:54.811Z,18.00
2018-05-10T02:51:28.491Z,17.90
2018-05-10T02:54:02.016Z,17.90
2018-05-10T02:56:36.309Z,17.80
2018-05-10T02:59:10.131Z,17.80
2018-05-10T03:01:44.542Z,17.70
2018-05-10T03:04:19.579Z,17.60
2018-05-10T03:06:53.363Z,17.50
2018-05-10T03:09:27.086Z,17.60
2018-05-10T03:12:00.773Z,17.70
2018-05-10T03:14:34.418Z,17.70
2018-05-10T03:17:08.106Z,17.70
2018-05-10T03:19:41.680Z,17.70
2018-05-10T03:22:16.126Z,17.60
2018-05-10T03:24:49.836Z,17.60
2018-05-10T03:27:23.534Z,17.60
2018-05-10T03:29:57.839Z,17.50
2018-05-10T03:32:31.422Z,17.50
2018-05-10T03:35:05.175Z,17.50
2018-05-10T03:37:39.577Z,17.40
2018-05-10T03:40:13.167Z,17.40
2018-05-10T03:42:46.683Z,17.30
2018-05-10T03:45:20.214Z,17.30
2018-05-10T03:47:53.843Z,17.30
2018-05-10T03:50:27.498Z,17.30
2018-05-10T03:53:01.059Z,17.20
2018-05-10T03:55:34.638Z,17.20
2018-05-10T03:58:08.279Z,17.20
2018-05-10T04:00:41.987Z,17.20
2018-05-10T04:03:51.060Z,17.10
2018-05-10T04:06:37.524Z,17.10
2018-05-10T04:09:23.004Z,17.10
2018-05-10T04:11:56.683Z,17.10
2018-05-10T04:14:31.109Z,17.10
2018-05-10T04:17:04.818Z,17.20
2018-05-10T04:19:38.639Z,17.10
2018-05-10T04:22:12.442Z,17.10
2018-05-10T04:24:46.242Z,17.00
2018-05-10T04:27:20.874Z,17.00
2018-05-10T04:29:54.475Z,17.00
2018-05-10T04:32:28.275Z,17.20
2018-05-10T04:35:02.153Z,17.20
2018-05-10T04:37:35.889Z,17.20
2018-05-10T04:40:09.488Z,17.20
2018-05-10T04:42:43.196Z,17.20
2018-05-10T04:45:16.767Z,17.20
2018-05-10T04:47:50.502Z,17.30
2018-05-10T04:50:24.513Z,17.30
2018-05-10T04:52:58.195Z,17.40
2018-05-10T04:55:31.814Z,17.40
2018-05-10T04:58:05.515Z,17.50
2018-05-10T05:00:39.319Z,17.50
2018-05-10T05:03:13.121Z,17.50
2018-05-10T05:05:46.926Z,17.60
2018-05-10T05:08:20.519Z,17.70
2018-05-10T05:10:54.005Z,17.80
2018-05-10T05:13:27.523Z,17.80
2018-05-10T05:16:01.123Z,17.90
2018-05-10T05:18:34.848Z,17.90
2018-05-10T05:21:08.416Z,17.90
2018-05-10T05:23:41.982Z,18.10
2018-05-10T05:26:15.741Z,18.10
2018-05-10T05:28:50.038Z,18.20
2018-05-10T05:31:23.972Z,18.20
2018-05-10T05:33:57.776Z,18.30
2018-05-10T05:36:31.444Z,18.40
2018-05-10T05:39:04.971Z,18.50
2018-05-10T05:41:38.562Z,18.60
2018-05-10T05:44:13.190Z,18.70
2018-05-10T05:46:46.994Z,18.70
2018-05-10T05:49:21.011Z,18.80
2018-05-10T05:51:55.015Z,18.90
2018-05-10T05:54:28.549Z,19.00
2018-05-10T05:57:02.088Z,19.10
2018-05-10T05:59:35.828Z,19.10
2018-05-10T06:02:09.419Z,19.20
2018-05-10T06:04:43.849Z,19.30
2018-05-10T06:07:18.121Z,19.40
2018-05-10T06:09:51.634Z,19.40
2018-05-10T06:12:25.258Z,19.40
2018-05-10T06:14:58.951Z,19.50
2018-05-10T06:17:32.514Z,19.60
2018-05-10T06:20:06.273Z,19.60
2018-05-10T06:22:40.690Z,19.60
2018-05-10T06:25:14.318Z,19.60
2018-05-10T06:27:47.831Z,19.70
2018-05-10T06:30:21.490Z,19.60
2018-05-10T06:32:55.099Z,19.80
2018-05-10T06:35:28.692Z,19.80
2018-05-10T06:38:02.979Z,19.60
2018-05-10T06:40:36.631Z,19.60
2018-05-10T06:43:10.180Z,19.60
2018-05-10T06:45:43.906Z,19.60
2018-05-10T06:48:17.577Z,19.60
2018-05-10T06:50:51.338Z,19.40
2018-05-10T06:53:24.922Z,19.60
2018-05-10T06:55:59.429Z,19.60
2018-05-10T06:58:33.131Z,19.60
2018-05-10T07:01:06.751Z,19.70
2018-05-10T07:03:41.370Z,19.70
2018-05-10T07:06:15.175Z,19.60
2018-05-10T07:08:48.782Z,19.70
2018-05-10T07:11:22.590Z,19.60
2018-05-10T07:13:56.391Z,19.70
2018-05-10T07:16:30.106Z,19.70
2018-05-10T07:19:03.711Z,19.50
2018-05-10T07:21:37.398Z,19.80
2018-05-10T07:24:10.990Z,19.70
2018-05-10T07:26:44.681Z,19.80
2018-05-10T07:29:18.610Z,19.80
2018-05-10T07:31:52.419Z,19.80
2018-05-10T07:34:26.219Z,19.80
2018-05-10T07:37:00.549Z,19.90
2018-05-10T07:39:35.882Z,20.00
2018-05-10T07:42:09.795Z,20.00
2018-05-10T07:44:44.108Z,20.10
2018-05-10T07:47:17.827Z,20.20
2018-05-10T07:49:51.458Z,20.20
2018-05-10T07:52:25.822Z,20.20
2018-05-10T07:54:59.739Z,20.10
2018-05-10T07:57:33.742Z,20.10
2018-05-10T08:00:07.370Z,20.20
2018-05-10T08:02:41.032Z,20.40
2018-05-10T08:05:14.608Z,20.50
2018-05-10T08:07:48.350Z,20.60
2018-05-10T08:10:22.075Z,20.60
2018-05-10T08:12:55.655Z,20.80
2018-05-10T08:15:29.222Z,20.90
2018-05-10T08:18:02.879Z,20.80
2018-05-10T08:20:36.636Z,20.80
2018-05-10T08:23:10.282Z,20.70
2018-05-10T08:25:43.974Z,20.50
2018-05-10T08:28:17.586Z,20.30
2018-05-10T08:30:51.387Z,19.70
2018-05-10T08:33:25.699Z,19.80
2018-05-10T08:36:00.214Z,20.00
2018-05-10T08:38:33.906Z,19.90
2018-05-10T08:41:07.495Z,19.90
2018-05-10T08:43:41.217Z,20.00
2018-05-10T08:46:14.831Z,20.20
2018-05-10T08:48:48.522Z,20.10
2018-05-10T08:51:22.042Z,20.30
2018-05-10T08:53:55.827Z,20.40
2018-05-10T08:56:29.639Z,20.50
2018-05-10T08:59:04.142Z,20.80
2018-05-10T09:01:38.073Z,20.70
2018-05-10T09:04:12.702Z,20.90
2018-05-10T09:06:46.503Z,20.90
2018-05-10T09:09:20.299Z,21.10
2018-05-10T09:11:54.594Z,21.10
2018-05-10T09:14:28.327Z,21.10
2018-05-10T09:17:02.953Z,21.30
2018-05-10T09:19:37.369Z,21.20
2018-05-10T09:22:11.171Z,21.20
2018-05-10T09:24:44.983Z,21.50
2018-05-10T09:27:19.483Z,21.40
2018-05-10T09:29:53.475Z,21.40
2018-05-10T09:32:27.221Z,21.30
2018-05-10T09:35:00.823Z,21.50
2018-05-10T09:37:34.423Z,21.60
2018-05-10T09:40:08.106Z,21.70
2018-05-10T09:42:41.826Z,21.90
2018-05-10T09:45:15.638Z,21.70
2018-05-10T09:47:49.299Z,22.00
2018-05-10T09:50:23.044Z,21.80
2018-05-10T09:52:56.643Z,22.00
2018-05-10T09:55:30.465Z,22.30
2018-05-10T09:58:04.241Z,22.00
2018-05-10T10:00:38.661Z,22.20
2018-05-10T10:03:12.477Z,22.20
2018-05-10T10:05:47.097Z,21.80
2018-05-10T10:08:20.770Z,21.80
2018-05-10T10:10:54.507Z,22.30
2018-05-10T10:13:28.023Z,22.50
2018-05-10T10:16:01.906Z,22.50
2018-05-10T10:18:37.152Z,22.30
2018-05-10T10:21:10.787Z,22.20
2018-05-10T10:23:44.558Z,22.40
2018-05-10T10:26:18.365Z,22.60
2018-05-10T10:28:51.979Z,22.50
2018-05-10T10:31:25.557Z,22.40
2018-05-10T10:33:59.187Z,22.60
2018-05-10T10:36:32.846Z,23.00
2018-05-10T10:39:06.362Z,23.10
2018-05-10T10:41:40.174Z,23.00
2018-05-10T10:44:13.943Z,22.40
2018-05-10T10:46:47.651Z,22.30
2018-05-10T10:49:22.198Z,22.20
2018-05-10T10:51:55.875Z,22.20
2018-05-10T10:54:29.694Z,22.30
2018-05-10T10:57:03.419Z,22.50
2018-05-10T10:59:37.019Z,22.40
2018-05-10T11:02:10.828Z,22.40
2018-05-10T11:04:44.622Z,22.30
2018-05-10T11:07:18.630Z,22.60
2018-05-10T11:09:52.311Z,22.40
2018-05-10T11:12:26.048Z,22.20
2018-05-10T11:14:59.784Z,22.20
2018-05-10T11:17:33.454Z,22.10
2018-05-10T11:20:08.575Z,21.30
2018-05-10T11:22:43.102Z,21.30
2018-05-10T11:25:17.418Z,21.20
2018-05-10T11:27:51.815Z,21.30
2018-05-10T11:30:25.346Z,21.30
2018-05-10T11:32:59.036Z,21.60
2018-05-10T11:35:32.755Z,21.30
2018-05-10T11:38:06.346Z,21.10
2018-05-10T11:40:40.163Z,20.90
2018-05-10T11:43:13.762Z,21.00
2018-05-10T11:45:47.589Z,21.00
2018-05-10T11:48:22.513Z,21.20
2018-05-10T11:50:56.933Z,21.30
2018-05-10T11:53:30.827Z,21.30
2018-05-10T11:56:04.622Z,21.20
2018-05-10T11:58:39.053Z,20.80
2018-05-10T12:01:13.352Z,21.00
2018-05-10T12:03:46.935Z,21.00
2018-05-10T12:06:20.572Z,21.10
2018-05-10T12:08:54.279Z,21.10
2018-05-10T12:11:28.690Z,20.50
2018-05-10T12:14:02.366Z,20.50
2018-05-10T12:16:35.903Z,20.50
2018-05-10T12:19:10.531Z,20.40
2018-05-10T12:21:44.326Z,20.40
2018-05-10T12:24:18.947Z,20.40
2018-05-10T12:26:53.434Z,20.10
2018-05-10T12:29:27.555Z,20.10
2018-05-10T12:32:02.096Z,20.10
2018-05-10T12:34:36.498Z,19.70
2018-05-10T12:37:10.431Z,19.60
2018-05-10T12:39:44.247Z,19.80
2018-05-10T12:42:18.072Z,19.80
2018-05-10T12:44:51.818Z,19.90
2018-05-10T12:47:26.140Z,19.70
2018-05-10T12:49:59.883Z,19.60
2018-05-10T12:52:33.495Z,19.60
2018-05-10T12:55:07.079Z,19.40
2018-05-10T12:57:41.486Z,18.80
2018-05-10T13:00:15.015Z,18.70
2018-05-10T13:02:48.769Z,18.90
2018-05-10T13:05:22.503Z,18.40
2018-05-10T13:07:56.919Z,18.30
2018-05-10T13:10:30.568Z,18.30
2018-05-10T13:13:04.191Z,18.70
2018-05-10T13:15:37.932Z,18.40
2018-05-10T13:18:11.614Z,18.40
2018-05-10T13:20:45.382Z,18.40
2018-05-10T13:23:19.091Z,18.20
2018-05-10T13:25:52.743Z,18.40
2018-05-10T13:28:26.339Z,18.70
2018-05-10T13:31:00.143Z,18.80
2018-05-10T13:33:33.632Z,18.60
2018-05-10T13:36:07.234Z,18.50
2018-05-10T13:38:41.156Z,18.30
2018-05-10T13:41:14.953Z,18.40
2018-05-10T13:43:48.647Z,18.40
2018-05-10T13:46:22.371Z,18.50
2018-05-10T13:48:56.651Z,18.60
2018-05-10T13:51:30.386Z,18.50
2018-05-10T13:54:03.991Z,18.60
2018-05-10T13:56:37.578Z,18.50
2018-05-10T13:59:11.266Z,18.70
2018-05-10T14:01:44.962Z,18.60
2018-05-10T14:04:18.670Z,18.60
2018-05-10T14:06:52.198Z,18.40
2018-05-10T14:09:25.996Z,18.60
2018-05-10T14:11:59.815Z,18.30
2018-05-10T14:14:34.234Z,18.30
2018-05-10T14:17:07.828Z,18.30
2018-05-10T14:19:42.247Z,18.40
2018-05-10T14:22:16.053Z,18.40
2018-05-10T14:24:49.858Z,18.20
2018-05-10T14:27:24.368Z,18.20
2018-05-10T14:29:58.083Z,18.20
2018-05-10T14:32:32.943Z,18.60
2018-05-10T14:35:06.516Z,18.60
2018-05-10T14:37:40.318Z,18.50
2018-05-10T14:40:13.991Z,18.10
2018-05-10T14:42:47.699Z,18.40
2018-05-10T14:45:21.327Z,17.80
2018-05-10T14:47:55.014Z,17.80
2018-05-10T14:50:29.407Z,17.80
2018-05-10T14:53:02.982Z,17.80
2018-05-10T14:55:37.367Z,17.70
2018-05-10T14:58:10.966Z,17.70
2018-05-10T15:00:45.254Z,17.30
2018-05-10T15:03:19.087Z,17.30
2018-05-10T15:05:53.486Z,17.40
2018-05-10T15:08:27.132Z,17.40
2018-05-10T15:11:00.814Z,17.40
2018-05-10T15:13:34.529Z,17.50
2018-05-10T15:16:08.226Z,17.50
2018-05-10T15:18:41.830Z,17.50
2018-05-10T15:21:15.426Z,17.40
2018-05-10T15:23:49.742Z,17.30
2018-05-10T15:26:23.439Z,17.30
2018-05-10T15:28:57.062Z,17.10
2018-05-10T15:31:30.734Z,17.20
2018-05-10T15:34:04.451Z,17.30
2018-05-10T15:36:38.020Z,17.20
2018-05-10T15:39:11.755Z,17.40
2018-05-10T15:41:45.940Z,17.20
2018-05-10T15:44:19.631Z,17.20
2018-05-10T15:46:53.156Z,16.90
2018-05-10T15:49:26.869Z,16.90
2018-05-10T15:52:00.682Z,16.90
2018-05-10T15:54:34.307Z,16.70
2018-05-10T15:57:08.090Z,16.60
2018-05-10T15:59:42.013Z,16.70
2018-05-10T16:02:15.707Z,16.80
2018-05-10T16:04:49.394Z,16.70
2018-05-10T16:07:23.054Z,16.60
2018-05-10T16:09:56.570Z,16.70
2018-05-10T16:12:30.143Z,16.70
2018-05-10T16:15:03.681Z,16.80
2018-05-10T16:17:37.202Z,16.60
2018-05-10T16:20:10.908Z,16.80
2018-05-10T16:22:45.328Z,16.90
2018-05-10T16:25:19.136Z,16.80
2018-05-10T16:27:53.758Z,16.60
2018-05-10T16:30:27.466Z,16.60
2018-05-10T16:33:01.167Z,16.60
2018-05-10T16:35:34.682Z,16.80
2018-05-10T16:38:09.185Z,16.70
2018-05-10T16:40:42.697Z,16.60
2018-05-10T16:43:16.216Z,16.30
2018-05-10T16:45:49.803Z,16.60
2018-05-10T16:48:23.399Z,16.70
2018-05-10T16:50:57.184Z,16.70
2018-05-10T16:53:30.955Z,16.50
2018-05-10T16:56:04.559Z,16.60
2018-05-10T16:58:38.083Z,16.50
2018-05-10T17:01:11.796Z,16.60
2018-05-10T17:03:45.296Z,16.50
2018-05-10T17:06:18.812Z,16.60
2018-05-10T17:08:52.403Z,16.30
2018-05-10T17:11:26.173Z,16.20
2018-05-10T17:13:59.706Z,16.30
2018-05-10T17:16:33.410Z,16.30
2018-05-10T17:19:08.035Z,16.40
2018-05-10T17:21:41.701Z,16.40
2018-05-10T17:24:15.427Z,16.30
2018-05-10T17:26:49.243Z,16.00
2018-05-10T17:29:22.981Z,16.20
2018-05-10T17:31:56.642Z,16.30
2018-05-10T17:34:30.930Z,16.10
2018-05-10T17:37:04.494Z,16.10
2018-05-10T17:39:38.063Z,16.20
2018-05-10T17:42:12.379Z,16.10
2018-05-10T17:44:46.287Z,16.10
2018-05-10T17:47:19.825Z,16.00
2018-05-10T17:49:53.562Z,16.10
2018-05-10T17:52:27.183Z,16.10
2018-05-10T17:55:00.892Z,16.10
2018-05-10T17:57:34.460Z,15.80
2018-05-10T18:00:08.293Z,15.70
2018-05-10T18:02:41.908Z,16.00
2018-05-10T18:05:15.507Z,16.00
2018-05-10T18:07:49.923Z,15.90
2018-05-10T18:10:23.594Z,15.80
2018-05-10T18:12:57.190Z,15.80
2018-05-10T18:15:30.723Z,15.80
2018-05-10T18:18:04.322Z,15.50
2018-05-10T18:20:38.132Z,15.30
2018-05-10T18:23:11.987Z,15.30
2018-05-10T18:25:46.435Z,15.60
2018-05-10T18:28:20.869Z,15.60
2018-05-10T18:30:54.590Z,15.60
2018-05-10T18:33:28.321Z,15.70
2018-05-10T18:36:02.083Z,15.70
2018-05-10T18:38:35.799Z,15.30
2018-05-10T18:41:09.467Z,15.50
2018-05-10T18:43:42.998Z,15.70
2018-05-10T18:46:16.806Z,15.60
2018-05-10T18:48:50.630Z,15.50
2018-05-10T18:51:24.158Z,15.50
2018-05-10T18:53:57.806Z,15.30
2018-05-10T18:56:31.406Z,15.50
2018-05-10T18:59:05.242Z,15.60
2018-05-10T19:01:38.819Z,15.60
2018-05-10T19:04:12.626Z,15.60
2018-05-10T19:06:46.910Z,15.20
2018-05-10T19:09:20.842Z,15.20
2018-05-10T19:11:54.523Z,15.30
2018-05-10T19:14:28.258Z,15.40
2018-05-10T19:17:02.651Z,15.30
2018-05-10T19:19:37.095Z,15.50
2018-05-10T19:22:10.762Z,15.50
2018-05-10T19:24:44.294Z,15.60
2018-05-10T19:27:18.920Z,15.60
2018-05-10T19:29:52.722Z,15.60
2018-05-10T19:32:26.334Z,15.50
2018-05-10T19:34:59.923Z,15.60
2018-05-10T19:37:34.554Z,15.40
2018-05-10T19:40:08.356Z,15.40
2018-05-10T19:42:42.364Z,15.50
2018-05-10T19:45:16.216Z,15.40
2018-05-10T19:47:49.979Z,15.60
2018-05-10T19:50:23.604Z,15.40
2018-05-10T19:52:57.295Z,15.50
2018-05-10T19:55:30.836Z,15.50
2018-05-10T19:58:04.327Z,15.30
2018-05-10T20:00:37.991Z,15.40
2018-05-10T20:03:11.583Z,15.30
2018-05-10T20:05:45.390Z,15.30
2018-05-10T20:08:18.912Z,15.00
2018-05-10T20:10:52.480Z,15.00
2018-05-10T20:13:26.060Z,15.10
2018-05-10T20:15:59.562Z,14.90
2018-05-10T20:18:33.072Z,14.70
2018-05-10T20:21:06.732Z,15.00
2018-05-10T20:23:43.746Z,15.10
2018-05-10T20:26:17.495Z,15.10
2018-05-10T20:28:51.033Z,14.90
2018-05-10T20:31:24.671Z,15.10
2018-05-10T20:33:58.185Z,15.00
2018-05-10T20:36:31.780Z,14.80
2018-05-10T20:39:05.318Z,14.90
2018-05-10T20:41:40.585Z,15.00
2018-05-10T20:44:14.106Z,15.00
2018-05-10T20:46:47.626Z,14.80
2018-05-10T20:49:21.999Z,15.00
2018-05-10T20:51:55.943Z,15.00
2018-05-10T20:54:29.430Z,15.10
2018-05-10T20:57:03.139Z,15.00
2018-05-10T20:59:36.642Z,14.80
2018-05-10T21:02:10.334Z,14.70
2018-05-10T21:04:43.942Z,14.90
2018-05-10T21:07:17.543Z,14.90
2018-05-10T21:09:51.215Z,14.90
2018-05-10T21:12:47.691Z,14.90
2018-05-10T21:15:21.367Z,14.80
2018-05-10T21:17:55.097Z,14.80
2018-05-10T21:20:29.595Z,14.90
2018-05-10T21:23:03.399Z,14.90
2018-05-10T21:25:37.598Z,14.80
2018-05-10T21:28:11.360Z,14.70
2018-05-10T21:30:44.834Z,14.60
2018-05-10T21:33:18.535Z,14.70
2018-05-10T21:35:52.139Z,14.80
2018-05-10T21:38:25.943Z,14.80
2018-05-10T21:40:59.748Z,14.70
2018-05-10T21:43:33.271Z,14.60
2018-05-10T21:46:06.824Z,14.70
2018-05-10T21:48:41.258Z,14.60
2018-05-10T21:51:14.867Z,14.60
2018-05-10T21:53:48.451Z,14.70
2018-05-10T21:56:22.053Z,14.70
2018-05-10T21:58:55.655Z,14.50
2018-05-10T22:01:29.454Z,14.60
2018-05-10T22:04:03.181Z,14.50
2018-05-10T22:06:36.683Z,14.60
2018-05-10T22:09:10.417Z,14.60
2018-05-10T22:11:44.012Z,14.60
2018-05-10T22:14:17.811Z,14.70
2018-05-10T22:16:51.458Z,14.60
2018-05-10T22:19:25.091Z,14.60
2018-05-10T22:21:58.674Z,14.50
2018-05-10T22:24:32.468Z,14.30
2018-05-10T22:27:06.690Z,14.50
2018-05-10T22:29:40.389Z,14.40
2018-05-10T22:32:13.883Z,14.50
2018-05-10T22:34:47.515Z,14.40
2018-05-10T22:37:21.121Z,14.40
2018-05-10T22:39:54.704Z,14.20
2018-05-10T22:42:28.282Z,14.30
2018-05-10T22:45:02.092Z,14.20
2018-05-10T22:47:35.650Z,14.00
2018-05-10T22:50:10.115Z,14.20
2018-05-10T22:52:43.795Z,14.20
2018-05-10T22:55:17.460Z,14.30
2018-05-10T22:57:51.766Z,14.30
2018-05-10T23:00:25.463Z,14.30
2018-05-10T23:02:59.778Z,14.30
2018-05-10T23:05:33.698Z,14.20
2018-05-10T23:08:07.294Z,14.30
2018-05-10T23:10:41.112Z,14.20
2018-05-10T23:13:15.738Z,14.20
2018-05-10T23:15:49.398Z,14.20
2018-05-10T23:18:23.222Z,14.20
2018-05-10T23:20:56.945Z,14.10
2018-05-10T23:23:30.539Z,14.10
2018-05-10T23:26:04.019Z,14.10
2018-05-10T23:28:37.618Z,13.90
2018-05-10T23:31:11.347Z,14.00
2018-05-10T23:33:45.034Z,14.00
2018-05-10T23:36:18.547Z,14.10
2018-05-10T23:38:52.236Z,14.00
2018-05-10T23:41:25.818Z,14.00
2018-05-10T23:43:59.553Z,13.90
2018-05-10T23:46:33.230Z,13.90
2018-05-10T23:49:06.962Z,14.00
2018-05-10T23:51:40.570Z,14.00
2018-05-10T23:54:14.143Z,13.50
2018-05-10T23:56:47.764Z,13.80
2018-05-10T23:59:21.476Z,13.80
